sensor_id;sensor_type;location;lat;lon;timestamp;temperature;humidity
1075;DHT22;526;51.392;12.448;2022-08-01T00:02:09;21.40;97.30
1075;DHT22;526;51.392;12.448;2022-08-01T00:04:35;21.40;97.30
1075;DHT22;526;51.392;12.448;2022-08-01T00:07:00;21.40;97.30
1075;DHT22;526;51.392;12.448;2022-08-01T00:09:26;21.30;97.30
1075;DHT22;526;51.392;12.448;2022-08-01T00:11:51;21.30;97.30
1075;DHT22;526;51.392;12.448;2022-08-01T00:14:17;21.30;97.30
1075;DHT22;526;51.392;12.448;2022-08-01T00:16:42;21.20;97.30
1075;DHT22;526;51.392;12.448;2022-08-01T00:19:08;21.20;97.30
1075;DHT22;526;51.392;12.448;2022-08-01T00:21:33;21.20;97.30
1075;DHT22;526;51.392;12.448;2022-08-01T00:23:59;21.10;97.30
1075;DHT22;526;51.392;12.448;2022-08-01T00:26:24;21.10;97.30
1075;DHT22;526;51.392;12.448;2022-08-01T00:28:50;21.10;97.30
1075;DHT22;526;51.392;12.448;2022-08-01T00:31:15;21.10;97.30
1075;DHT22;526;51.392;12.448;2022-08-01T00:33:41;21.10;97.30
1075;DHT22;526;51.392;12.448;2022-08-01T00:36:06;21.10;97.30
1075;DHT22;526;51.392;12.448;2022-08-01T00:38:32;21.10;97.30
1075;DHT22;526;51.392;12.448;2022-08-01T00:40:58;21.10;97.30
1075;DHT22;526;51.392;12.448;2022-08-01T00:43:26;21.10;97.30
1075;DHT22;526;51.392;12.448;2022-08-01T00:45:51;21.10;97.30
1075;DHT22;526;51.392;12.448;2022-08-01T00:48:17;21.10;97.30
1075;DHT22;526;51.392;12.448;2022-08-01T00:50:43;21.10;97.30
1075;DHT22;526;51.392;12.448;2022-08-01T00:53:08;21.10;97.30
1075;DHT22;526;51.392;12.448;2022-08-01T00:55:34;21.10;97.30
1075;DHT22;526;51.392;12.448;2022-08-01T00:58:00;21.10;97.30
1075;DHT22;526;51.392;12.448;2022-08-01T01:00:25;21.10;97.30
1075;DHT22;526;51.392;12.448;2022-08-01T01:02:51;21.10;97.30
1075;DHT22;526;51.392;12.448;2022-08-01T01:05:17;21.20;97.30
1075;DHT22;526;51.392;12.448;2022-08-01T01:07:54;21.20;97.30
1075;DHT22;526;51.392;12.448;2022-08-01T01:10:52;21.20;97.30
1075;DHT22;526;51.392;12.448;2022-08-01T01:15:56;21.20;97.30
1075;DHT22;526;51.392;12.448;2022-08-01T01:18:46;21.10;97.30
1075;DHT22;526;51.392;12.448;2022-08-01T01:24:11;21.10;97.30
1075;DHT22;526;51.392;12.448;2022-08-01T01:26:49;21.10;97.30
1075;DHT22;526;51.392;12.448;2022-08-01T01:29:31;21.10;97.30
1075;DHT22;526;51.392;12.448;2022-08-01T01:32:14;21.10;97.30
1075;DHT22;526;51.392;12.448;2022-08-01T01:34:44;21.10;97.30
1075;DHT22;526;51.392;12.448;2022-08-01T01:37:14;21.10;97.30
1075;DHT22;526;51.392;12.448;2022-08-01T01:39:41;21.10;97.30
1075;DHT22;526;51.392;12.448;2022-08-01T01:42:08;21.10;97.30
1075;DHT22;526;51.392;12.448;2022-08-01T01:44:34;21.10;97.30
1075;DHT22;526;51.392;12.448;2022-08-01T01:47:01;21.10;97.30
1075;DHT22;526;51.392;12.448;2022-08-01T01:49:28;21.10;97.30
1075;DHT22;526;51.392;12.448;2022-08-01T01:51:57;21.10;97.30
1075;DHT22;526;51.392;12.448;2022-08-01T01:54:26;21.00;97.30
1075;DHT22;526;51.392;12.448;2022-08-01T01:56:56;21.10;97.30
1075;DHT22;526;51.392;12.448;2022-08-01T01:59:27;21.10;97.30
1075;DHT22;526;51.392;12.448;2022-08-01T02:01:55;21.00;97.30
1075;DHT22;526;51.392;12.448;2022-08-01T02:04:22;21.10;97.30
1075;DHT22;526;51.392;12.448;2022-08-01T02:06:50;21.10;97.30
1075;DHT22;526;51.392;12.448;2022-08-01T02:09:17;21.00;97.30
1075;DHT22;526;51.392;12.448;2022-08-01T02:11:44;21.00;97.30
1075;DHT22;526;51.392;12.448;2022-08-01T02:14:11;21.00;97.30
1075;DHT22;526;51.392;12.448;2022-08-01T02:16:40;21.00;97.30
1075;DHT22;526;51.392;12.448;2022-08-01T02:19:06;21.00;97.30
1075;DHT22;526;51.392;12.448;2022-08-01T02:21:40;20.90;97.30
1075;DHT22;526;51.392;12.448;2022-08-01T02:24:13;20.90;97.30
1075;DHT22;526;51.392;12.448;2022-08-01T02:26:44;20.90;97.30
1075;DHT22;526;51.392;12.448;2022-08-01T02:29:16;20.80;97.30
1075;DHT22;526;51.392;12.448;2022-08-01T02:34:14;20.70;97.30
1075;DHT22;526;51.392;12.448;2022-08-01T02:36:41;20.70;97.30
1075;DHT22;526;51.392;12.448;2022-08-01T02:39:13;20.70;97.30
1075;DHT22;526;51.392;12.448;2022-08-01T02:41:42;20.60;97.30
1075;DHT22;526;51.392;12.448;2022-08-01T02:44:11;20.60;97.30
1075;DHT22;526;51.392;12.448;2022-08-01T02:46:57;20.60;97.30
1075;DHT22;526;51.392;12.448;2022-08-01T02:49:29;20.60;97.30
1075;DHT22;526;51.392;12.448;2022-08-01T02:51:57;20.60;97.30
1075;DHT22;526;51.392;12.448;2022-08-01T02:54:24;20.50;97.30
1075;DHT22;526;51.392;12.448;2022-08-01T02:56:51;20.50;97.30
1075;DHT22;526;51.392;12.448;2022-08-01T02:59:19;20.50;97.30
1075;DHT22;526;51.392;12.448;2022-08-01T03:01:47;20.40;97.30
1075;DHT22;526;51.392;12.448;2022-08-01T03:04:14;20.40;97.30
1075;DHT22;526;51.392;12.448;2022-08-01T03:06:43;20.40;97.30
1075;DHT22;526;51.392;12.448;2022-08-01T03:09:10;20.30;97.30
1075;DHT22;526;51.392;12.448;2022-08-01T03:11:40;20.30;97.30
1075;DHT22;526;51.392;12.448;2022-08-01T03:14:09;20.30;97.30
1075;DHT22;526;51.392;12.448;2022-08-01T03:16:38;20.30;97.30
1075;DHT22;526;51.392;12.448;2022-08-01T03:19:07;20.20;97.30
1075;DHT22;526;51.392;12.448;2022-08-01T03:21:34;20.20;97.30
1075;DHT22;526;51.392;12.448;2022-08-01T03:24:01;20.20;97.30
1075;DHT22;526;51.392;12.448;2022-08-01T03:26:33;20.20;97.30
1075;DHT22;526;51.392;12.448;2022-08-01T03:29:04;20.30;97.30
1075;DHT22;526;51.392;12.448;2022-08-01T03:31:34;20.30;97.30
1075;DHT22;526;51.392;12.448;2022-08-01T03:34:00;20.20;97.30
1075;DHT22;526;51.392;12.448;2022-08-01T03:36:26;20.20;97.30
1075;DHT22;526;51.392;12.448;2022-08-01T03:38:57;20.30;97.30
1075;DHT22;526;51.392;12.448;2022-08-01T03:41:26;20.30;97.30
1075;DHT22;526;51.392;12.448;2022-08-01T03:44:02;20.30;97.30
1075;DHT22;526;51.392;12.448;2022-08-01T03:46:34;20.20;97.30
1075;DHT22;526;51.392;12.448;2022-08-01T03:49:05;20.20;97.30
1075;DHT22;526;51.392;12.448;2022-08-01T03:51:32;20.20;97.30
1075;DHT22;526;51.392;12.448;2022-08-01T03:54:00;20.20;97.30
1075;DHT22;526;51.392;12.448;2022-08-01T03:56:27;20.20;97.30
1075;DHT22;526;51.392;12.448;2022-08-01T03:58:56;20.20;97.30
1075;DHT22;526;51.392;12.448;2022-08-01T04:01:22;20.10;97.30
1075;DHT22;526;51.392;12.448;2022-08-01T04:03:48;20.20;97.30
1075;DHT22;526;51.392;12.448;2022-08-01T04:06:14;20.10;97.30
1075;DHT22;526;51.392;12.448;2022-08-01T04:08:40;20.10;97.30
1075;DHT22;526;51.392;12.448;2022-08-01T04:11:08;20.20;97.30
1075;DHT22;526;51.392;12.448;2022-08-01T04:13:34;20.10;97.30
1075;DHT22;526;51.392;12.448;2022-08-01T04:16:00;20.10;97.30
1075;DHT22;526;51.392;12.448;2022-08-01T04:18:26;20.10;97.30
1075;DHT22;526;51.392;12.448;2022-08-01T04:20:51;20.10;97.30
1075;DHT22;526;51.392;12.448;2022-08-01T04:23:23;20.20;97.30
1075;DHT22;526;51.392;12.448;2022-08-01T04:25:50;20.20;97.30
1075;DHT22;526;51.392;12.448;2022-08-01T04:28:17;20.20;97.30
1075;DHT22;526;51.392;12.448;2022-08-01T04:30:46;20.20;97.30
1075;DHT22;526;51.392;12.448;2022-08-01T04:33:14;20.30;97.30
1075;DHT22;526;51.392;12.448;2022-08-01T04:35:44;20.30;97.30
1075;DHT22;526;51.392;12.448;2022-08-01T04:38:12;20.40;97.30
1075;DHT22;526;51.392;12.448;2022-08-01T04:40:40;20.40;97.30
1075;DHT22;526;51.392;12.448;2022-08-01T04:43:06;20.30;97.30
1075;DHT22;526;51.392;12.448;2022-08-01T04:45:33;20.30;97.30
1075;DHT22;526;51.392;12.448;2022-08-01T04:48:00;20.20;97.30
1075;DHT22;526;51.392;12.448;2022-08-01T04:50:27;20.20;97.30
1075;DHT22;526;51.392;12.448;2022-08-01T04:52:53;20.20;97.30
1075;DHT22;526;51.392;12.448;2022-08-01T04:55:18;20.20;97.30
1075;DHT22;526;51.392;12.448;2022-08-01T04:57:46;20.20;97.30
1075;DHT22;526;51.392;12.448;2022-08-01T05:00:13;20.20;97.30
1075;DHT22;526;51.392;12.448;2022-08-01T05:02:40;20.20;97.30
1075;DHT22;526;51.392;12.448;2022-08-01T05:05:06;20.20;97.30
1075;DHT22;526;51.392;12.448;2022-08-01T05:07:32;20.20;97.30
1075;DHT22;526;51.392;12.448;2022-08-01T05:09:58;20.20;97.30
1075;DHT22;526;51.392;12.448;2022-08-01T05:12:23;20.20;97.30
1075;DHT22;526;51.392;12.448;2022-08-01T05:14:49;20.20;97.30
1075;DHT22;526;51.392;12.448;2022-08-01T05:17:15;20.20;97.30
1075;DHT22;526;51.392;12.448;2022-08-01T05:19:42;20.20;97.30
1075;DHT22;526;51.392;12.448;2022-08-01T05:22:09;20.20;97.30
1075;DHT22;526;51.392;12.448;2022-08-01T05:24:37;20.20;97.30
1075;DHT22;526;51.392;12.448;2022-08-01T05:27:04;20.20;97.30
1075;DHT22;526;51.392;12.448;2022-08-01T05:29:30;20.20;97.30
1075;DHT22;526;51.392;12.448;2022-08-01T05:31:56;20.20;97.30
1075;DHT22;526;51.392;12.448;2022-08-01T05:34:22;20.20;97.30
1075;DHT22;526;51.392;12.448;2022-08-01T05:36:48;20.20;97.30
1075;DHT22;526;51.392;12.448;2022-08-01T05:39:14;20.20;97.30
1075;DHT22;526;51.392;12.448;2022-08-01T05:41:40;20.30;97.30
1075;DHT22;526;51.392;12.448;2022-08-01T05:44:06;20.30;97.30
1075;DHT22;526;51.392;12.448;2022-08-01T05:46:32;20.30;97.30
1075;DHT22;526;51.392;12.448;2022-08-01T05:48:59;20.40;97.30
1075;DHT22;526;51.392;12.448;2022-08-01T05:51:25;20.40;97.30
1075;DHT22;526;51.392;12.448;2022-08-01T05:53:51;20.50;97.30
1075;DHT22;526;51.392;12.448;2022-08-01T05:56:16;20.60;97.30
1075;DHT22;526;51.392;12.448;2022-08-01T05:58:42;20.70;97.30
1075;DHT22;526;51.392;12.448;2022-08-01T06:01:08;20.80;97.30
1075;DHT22;526;51.392;12.448;2022-08-01T06:03:34;20.80;97.30
1075;DHT22;526;51.392;12.448;2022-08-01T06:06:00;20.80;97.30
1075;DHT22;526;51.392;12.448;2022-08-01T06:08:26;20.90;97.30
1075;DHT22;526;51.392;12.448;2022-08-01T06:10:52;20.90;97.30
1075;DHT22;526;51.392;12.448;2022-08-01T06:13:18;21.00;97.30
1075;DHT22;526;51.392;12.448;2022-08-01T06:15:45;21.00;97.30
1075;DHT22;526;51.392;12.448;2022-08-01T06:18:11;21.00;97.30
1075;DHT22;526;51.392;12.448;2022-08-01T06:20:37;21.00;97.30
1075;DHT22;526;51.392;12.448;2022-08-01T06:23:03;21.00;97.30
1075;DHT22;526;51.392;12.448;2022-08-01T06:25:28;21.10;97.30
1075;DHT22;526;51.392;12.448;2022-08-01T06:27:54;21.20;97.30
1075;DHT22;526;51.392;12.448;2022-08-01T06:30:20;21.20;97.30
1075;DHT22;526;51.392;12.448;2022-08-01T06:32:45;21.20;97.30
1075;DHT22;526;51.392;12.448;2022-08-01T06:35:11;21.30;97.30
1075;DHT22;526;51.392;12.448;2022-08-01T06:37:37;21.30;97.30
1075;DHT22;526;51.392;12.448;2022-08-01T06:40:08;21.30;97.30
1075;DHT22;526;51.392;12.448;2022-08-01T06:42:34;21.40;97.30
1075;DHT22;526;51.392;12.448;2022-08-01T06:45:08;21.40;97.30
1075;DHT22;526;51.392;12.448;2022-08-01T06:47:34;21.40;97.30
1075;DHT22;526;51.392;12.448;2022-08-01T06:50:00;21.50;97.30
1075;DHT22;526;51.392;12.448;2022-08-01T06:52:26;21.50;97.30
1075;DHT22;526;51.392;12.448;2022-08-01T06:54:52;21.50;97.30
1075;DHT22;526;51.392;12.448;2022-08-01T06:57:18;21.50;97.30
1075;DHT22;526;51.392;12.448;2022-08-01T06:59:44;21.50;97.30
1075;DHT22;526;51.392;12.448;2022-08-01T07:02:10;21.50;97.30
1075;DHT22;526;51.392;12.448;2022-08-01T07:04:35;21.50;97.30
1075;DHT22;526;51.392;12.448;2022-08-01T07:07:01;21.50;97.30
1075;DHT22;526;51.392;12.448;2022-08-01T07:09:27;21.50;97.30
1075;DHT22;526;51.392;12.448;2022-08-01T07:11:53;21.50;97.30
1075;DHT22;526;51.392;12.448;2022-08-01T07:14:20;21.50;97.30
1075;DHT22;526;51.392;12.448;2022-08-01T07:16:46;21.60;97.30
1075;DHT22;526;51.392;12.448;2022-08-01T07:19:12;21.50;97.30
1075;DHT22;526;51.392;12.448;2022-08-01T07:21:39;21.50;97.30
1075;DHT22;526;51.392;12.448;2022-08-01T07:24:09;21.50;97.30
1075;DHT22;526;51.392;12.448;2022-08-01T07:26:35;21.40;97.30
1075;DHT22;526;51.392;12.448;2022-08-01T07:29:00;21.40;97.30
1075;DHT22;526;51.392;12.448;2022-08-01T07:31:26;21.40;97.30
1075;DHT22;526;51.392;12.448;2022-08-01T07:33:52;21.40;97.30
1075;DHT22;526;51.392;12.448;2022-08-01T07:36:18;21.40;97.30
1075;DHT22;526;51.392;12.448;2022-08-01T07:38:44;21.40;97.30
1075;DHT22;526;51.392;12.448;2022-08-01T07:41:10;21.40;97.30
1075;DHT22;526;51.392;12.448;2022-08-01T07:43:35;21.30;97.30
1075;DHT22;526;51.392;12.448;2022-08-01T07:46:02;21.20;97.30
1075;DHT22;526;51.392;12.448;2022-08-01T07:48:28;21.00;97.30
1075;DHT22;526;51.392;12.448;2022-08-01T07:50:54;20.90;97.30
1075;DHT22;526;51.392;12.448;2022-08-01T07:53:20;20.90;97.30
1075;DHT22;526;51.392;12.448;2022-08-01T07:55:46;20.80;97.30
1075;DHT22;526;51.392;12.448;2022-08-01T07:58:12;20.80;97.30
1075;DHT22;526;51.392;12.448;2022-08-01T08:00:37;20.90;97.30
1075;DHT22;526;51.392;12.448;2022-08-01T08:03:03;20.90;97.30
1075;DHT22;526;51.392;12.448;2022-08-01T08:05:28;21.00;97.30
1075;DHT22;526;51.392;12.448;2022-08-01T08:07:54;21.00;97.30
1075;DHT22;526;51.392;12.448;2022-08-01T08:10:20;21.10;97.30
1075;DHT22;526;51.392;12.448;2022-08-01T08:12:46;21.20;97.30
1075;DHT22;526;51.392;12.448;2022-08-01T08:15:12;21.20;97.30
1075;DHT22;526;51.392;12.448;2022-08-01T08:17:38;21.30;97.30
1075;DHT22;526;51.392;12.448;2022-08-01T08:20:06;21.40;97.30
1075;DHT22;526;51.392;12.448;2022-08-01T08:22:32;21.60;97.30
1075;DHT22;526;51.392;12.448;2022-08-01T08:24:58;21.70;97.30
1075;DHT22;526;51.392;12.448;2022-08-01T08:27:24;21.80;97.30
1075;DHT22;526;51.392;12.448;2022-08-01T08:29:49;21.70;97.30
1075;DHT22;526;51.392;12.448;2022-08-01T08:32:15;21.70;97.30
1075;DHT22;526;51.392;12.448;2022-08-01T08:34:41;21.80;97.30
1075;DHT22;526;51.392;12.448;2022-08-01T08:37:07;21.90;97.30
1075;DHT22;526;51.392;12.448;2022-08-01T08:39:32;22.00;97.30
1075;DHT22;526;51.392;12.448;2022-08-01T08:42:04;22.10;97.30
1075;DHT22;526;51.392;12.448;2022-08-01T08:44:31;22.20;97.30
1075;DHT22;526;51.392;12.448;2022-08-01T08:46:58;22.20;97.30
1075;DHT22;526;51.392;12.448;2022-08-01T08:49:27;22.30;97.30
1075;DHT22;526;51.392;12.448;2022-08-01T08:52:00;22.40;97.30
1075;DHT22;526;51.392;12.448;2022-08-01T08:54:27;22.40;97.30
1075;DHT22;526;51.392;12.448;2022-08-01T08:56:54;22.40;97.30
1075;DHT22;526;51.392;12.448;2022-08-01T08:59:20;22.40;97.30
1075;DHT22;526;51.392;12.448;2022-08-01T09:01:47;22.40;97.30
1075;DHT22;526;51.392;12.448;2022-08-01T09:04:13;22.40;97.30
1075;DHT22;526;51.392;12.448;2022-08-01T09:06:39;22.40;97.30
1075;DHT22;526;51.392;12.448;2022-08-01T09:09:06;22.50;97.30
1075;DHT22;526;51.392;12.448;2022-08-01T09:11:33;22.60;97.30
1075;DHT22;526;51.392;12.448;2022-08-01T09:14:14;22.80;97.30
1075;DHT22;526;51.392;12.448;2022-08-01T09:16:42;22.90;97.30
1075;DHT22;526;51.392;12.448;2022-08-01T09:19:13;23.10;97.30
1075;DHT22;526;51.392;12.448;2022-08-01T09:21:54;23.00;97.30
1075;DHT22;526;51.392;12.448;2022-08-01T09:24:20;23.00;97.30
1075;DHT22;526;51.392;12.448;2022-08-01T09:26:45;23.10;97.30
1075;DHT22;526;51.392;12.448;2022-08-01T09:29:18;23.20;97.30
1075;DHT22;526;51.392;12.448;2022-08-01T09:31:45;23.30;97.30
1075;DHT22;526;51.392;12.448;2022-08-01T09:34:12;23.30;97.30
1075;DHT22;526;51.392;12.448;2022-08-01T09:36:49;23.30;97.30
1075;DHT22;526;51.392;12.448;2022-08-01T09:39:21;23.20;97.30
1075;DHT22;526;51.392;12.448;2022-08-01T09:41:47;23.20;97.30
1075;DHT22;526;51.392;12.448;2022-08-01T09:44:14;23.20;97.30
1075;DHT22;526;51.392;12.448;2022-08-01T09:46:49;23.20;97.30
1075;DHT22;526;51.392;12.448;2022-08-01T09:49:33;23.20;97.30
1075;DHT22;526;51.392;12.448;2022-08-01T09:52:15;23.30;97.30
1075;DHT22;526;51.392;12.448;2022-08-01T09:54:42;23.20;97.30
1075;DHT22;526;51.392;12.448;2022-08-01T09:57:14;23.10;97.30
1075;DHT22;526;51.392;12.448;2022-08-01T09:59:42;23.00;97.30
1075;DHT22;526;51.392;12.448;2022-08-01T10:02:10;22.90;97.30
1075;DHT22;526;51.392;12.448;2022-08-01T10:04:46;22.80;97.30
1075;DHT22;526;51.392;12.448;2022-08-01T10:07:12;23.00;97.30
1075;DHT22;526;51.392;12.448;2022-08-01T10:09:40;23.00;97.30
1075;DHT22;526;51.392;12.448;2022-08-01T10:12:07;23.00;97.30
1075;DHT22;526;51.392;12.448;2022-08-01T10:14:32;23.00;97.30
1075;DHT22;526;51.392;12.448;2022-08-01T10:17:00;23.10;97.30
1075;DHT22;526;51.392;12.448;2022-08-01T10:19:27;23.20;97.00
1075;DHT22;526;51.392;12.448;2022-08-01T10:21:55;23.40;95.90
1075;DHT22;526;51.392;12.448;2022-08-01T10:24:21;23.60;96.00
1075;DHT22;526;51.392;12.448;2022-08-01T10:26:48;23.70;95.10
1075;DHT22;526;51.392;12.448;2022-08-01T10:29:17;23.90;95.50
1075;DHT22;526;51.392;12.448;2022-08-01T10:31:44;24.10;95.00
1075;DHT22;526;51.392;12.448;2022-08-01T10:34:11;24.10;94.70
1075;DHT22;526;51.392;12.448;2022-08-01T10:36:37;24.10;94.70
1075;DHT22;526;51.392;12.448;2022-08-01T10:39:06;24.00;95.00
1075;DHT22;526;51.392;12.448;2022-08-01T10:41:33;24.10;94.90
1075;DHT22;526;51.392;12.448;2022-08-01T10:44:01;24.10;94.70
1075;DHT22;526;51.392;12.448;2022-08-01T10:46:29;24.20;95.30
1075;DHT22;526;51.392;12.448;2022-08-01T10:49:02;24.40;94.90
1075;DHT22;526;51.392;12.448;2022-08-01T10:51:28;24.50;93.40
1075;DHT22;526;51.392;12.448;2022-08-01T10:53:54;24.60;93.60
1075;DHT22;526;51.392;12.448;2022-08-01T10:56:21;24.70;93.00
1075;DHT22;526;51.392;12.448;2022-08-01T10:58:48;24.70;92.50
1075;DHT22;526;51.392;12.448;2022-08-01T11:03:40;24.80;93.00
1075;DHT22;526;51.392;12.448;2022-08-01T11:06:06;24.70;92.50
1075;DHT22;526;51.392;12.448;2022-08-01T11:08:36;24.70;92.50
1075;DHT22;526;51.392;12.448;2022-08-01T11:11:03;24.60;92.10
1075;DHT22;526;51.392;12.448;2022-08-01T11:14:05;24.60;92.80
1075;DHT22;526;51.392;12.448;2022-08-01T11:16:35;24.60;92.20
1075;DHT22;526;51.392;12.448;2022-08-01T11:19:03;24.80;92.10
1075;DHT22;526;51.392;12.448;2022-08-01T11:27:28;25.10;91.60
1075;DHT22;526;51.392;12.448;2022-08-01T11:32:57;25.30;90.20
1075;DHT22;526;51.392;12.448;2022-08-01T11:35:24;25.40;88.90
1075;DHT22;526;51.392;12.448;2022-08-01T11:37:53;25.40;90.00
1075;DHT22;526;51.392;12.448;2022-08-01T11:40:25;25.40;90.50
1075;DHT22;526;51.392;12.448;2022-08-01T11:45:53;25.40;90.70
1075;DHT22;526;51.392;12.448;2022-08-01T11:48:24;25.30;90.60
1075;DHT22;526;51.392;12.448;2022-08-01T11:50:54;25.20;91.50
1075;DHT22;526;51.392;12.448;2022-08-01T11:53:20;25.10;91.80
1075;DHT22;526;51.392;12.448;2022-08-01T11:55:51;25.00;93.40
1075;DHT22;526;51.392;12.448;2022-08-01T11:58:25;25.10;93.60
1075;DHT22;526;51.392;12.448;2022-08-01T12:00:56;25.40;93.20
1075;DHT22;526;51.392;12.448;2022-08-01T12:03:26;25.50;93.20
1075;DHT22;526;51.392;12.448;2022-08-01T12:05:53;25.50;91.40
1075;DHT22;526;51.392;12.448;2022-08-01T12:08:26;25.50;90.80
1075;DHT22;526;51.392;12.448;2022-08-01T12:10:53;25.50;92.10
1075;DHT22;526;51.392;12.448;2022-08-01T12:13:19;25.60;90.80
1075;DHT22;526;51.392;12.448;2022-08-01T12:15:45;25.70;90.90
1075;DHT22;526;51.392;12.448;2022-08-01T12:18:11;25.70;90.50
1075;DHT22;526;51.392;12.448;2022-08-01T12:20:39;25.80;90.30
1075;DHT22;526;51.392;12.448;2022-08-01T12:23:08;25.90;91.30
1075;DHT22;526;51.392;12.448;2022-08-01T12:25:35;25.90;89.80
1075;DHT22;526;51.392;12.448;2022-08-01T12:28:03;25.70;89.60
1075;DHT22;526;51.392;12.448;2022-08-01T12:30:30;25.70;89.20
1075;DHT22;526;51.392;12.448;2022-08-01T12:32:56;25.60;89.90
1075;DHT22;526;51.392;12.448;2022-08-01T12:35:24;25.50;89.80
1075;DHT22;526;51.392;12.448;2022-08-01T12:37:53;25.50;89.90
1075;DHT22;526;51.392;12.448;2022-08-01T12:40:27;25.60;89.40
1075;DHT22;526;51.392;12.448;2022-08-01T12:43:04;25.60;89.30
1075;DHT22;526;51.392;12.448;2022-08-01T12:45:36;25.60;88.40
1075;DHT22;526;51.392;12.448;2022-08-01T12:48:08;25.70;89.70
1075;DHT22;526;51.392;12.448;2022-08-01T12:50:35;25.80;89.10
1075;DHT22;526;51.392;12.448;2022-08-01T12:53:02;25.90;90.00
1075;DHT22;526;51.392;12.448;2022-08-01T12:55:27;25.90;89.80
1075;DHT22;526;51.392;12.448;2022-08-01T12:58:04;25.90;89.70
1075;DHT22;526;51.392;12.448;2022-08-01T13:00:30;25.90;89.60
1075;DHT22;526;51.392;12.448;2022-08-01T13:03:06;26.00;90.90
1075;DHT22;526;51.392;12.448;2022-08-01T13:05:55;26.10;90.40
1075;DHT22;526;51.392;12.448;2022-08-01T13:08:23;26.30;89.50
1075;DHT22;526;51.392;12.448;2022-08-01T13:10:51;26.40;89.40
1075;DHT22;526;51.392;12.448;2022-08-01T13:13:33;26.60;89.50
1075;DHT22;526;51.392;12.448;2022-08-01T13:16:06;26.80;88.00
1075;DHT22;526;51.392;12.448;2022-08-01T13:18:33;26.90;88.10
1075;DHT22;526;51.392;12.448;2022-08-01T13:21:32;27.10;87.00
1075;DHT22;526;51.392;12.448;2022-08-01T13:24:11;27.00;87.60
1075;DHT22;526;51.392;12.448;2022-08-01T13:29:16;26.70;88.70
1075;DHT22;526;51.392;12.448;2022-08-01T13:31:43;26.60;88.10
1075;DHT22;526;51.392;12.448;2022-08-01T13:34:09;26.60;87.60
1075;DHT22;526;51.392;12.448;2022-08-01T13:36:35;26.50;86.20
1075;DHT22;526;51.392;12.448;2022-08-01T13:39:02;26.40;85.90
1075;DHT22;526;51.392;12.448;2022-08-01T13:41:46;26.30;86.50
1075;DHT22;526;51.392;12.448;2022-08-01T13:44:13;26.20;86.40
1075;DHT22;526;51.392;12.448;2022-08-01T13:46:40;26.10;87.50
1075;DHT22;526;51.392;12.448;2022-08-01T13:49:09;26.20;88.20
1075;DHT22;526;51.392;12.448;2022-08-01T13:51:35;26.30;88.10
1075;DHT22;526;51.392;12.448;2022-08-01T13:54:02;26.60;85.50
1075;DHT22;526;51.392;12.448;2022-08-01T13:56:29;26.70;86.30
1075;DHT22;526;51.392;12.448;2022-08-01T13:58:56;26.70;86.00
1075;DHT22;526;51.392;12.448;2022-08-01T14:01:22;26.90;88.70
1075;DHT22;526;51.392;12.448;2022-08-01T14:03:49;27.10;86.50
1075;DHT22;526;51.392;12.448;2022-08-01T14:06:16;27.20;85.50
1075;DHT22;526;51.392;12.448;2022-08-01T14:08:43;27.10;85.80
1075;DHT22;526;51.392;12.448;2022-08-01T14:11:08;26.80;86.00
1075;DHT22;526;51.392;12.448;2022-08-01T14:13:34;26.70;86.40
1075;DHT22;526;51.392;12.448;2022-08-01T14:16:02;26.70;86.50
1075;DHT22;526;51.392;12.448;2022-08-01T14:18:28;26.80;85.60
1075;DHT22;526;51.392;12.448;2022-08-01T14:20:53;26.90;85.90
1075;DHT22;526;51.392;12.448;2022-08-01T14:23:19;27.00;85.10
1075;DHT22;526;51.392;12.448;2022-08-01T14:25:44;27.20;86.00
1075;DHT22;526;51.392;12.448;2022-08-01T14:28:10;27.40;84.90
1075;DHT22;526;51.392;12.448;2022-08-01T14:30:36;27.40;84.30
1075;DHT22;526;51.392;12.448;2022-08-01T14:33:02;27.20;85.00
1075;DHT22;526;51.392;12.448;2022-08-01T14:35:35;27.10;85.90
1075;DHT22;526;51.392;12.448;2022-08-01T14:38:02;27.10;85.70
1075;DHT22;526;51.392;12.448;2022-08-01T14:40:27;27.20;85.70
1075;DHT22;526;51.392;12.448;2022-08-01T14:42:53;27.40;83.10
1075;DHT22;526;51.392;12.448;2022-08-01T14:45:19;27.50;84.30
1075;DHT22;526;51.392;12.448;2022-08-01T14:47:44;27.60;83.00
1075;DHT22;526;51.392;12.448;2022-08-01T14:50:12;27.70;82.10
1075;DHT22;526;51.392;12.448;2022-08-01T14:52:39;27.60;82.30
1075;DHT22;526;51.392;12.448;2022-08-01T14:55:07;27.40;83.40
1075;DHT22;526;51.392;12.448;2022-08-01T14:57:33;27.30;83.70
1075;DHT22;526;51.392;12.448;2022-08-01T14:59:59;27.30;83.70
1075;DHT22;526;51.392;12.448;2022-08-01T15:02:24;27.50;83.80
1075;DHT22;526;51.392;12.448;2022-08-01T15:04:50;27.60;83.60
1075;DHT22;526;51.392;12.448;2022-08-01T15:07:16;27.80;83.90
1075;DHT22;526;51.392;12.448;2022-08-01T15:09:43;28.00;83.50
1075;DHT22;526;51.392;12.448;2022-08-01T15:12:09;28.00;83.00
1075;DHT22;526;51.392;12.448;2022-08-01T15:14:35;28.00;83.40
1075;DHT22;526;51.392;12.448;2022-08-01T15:17:13;28.00;83.00
1075;DHT22;526;51.392;12.448;2022-08-01T15:19:39;27.90;83.60
1075;DHT22;526;51.392;12.448;2022-08-01T15:22:04;27.90;84.10
1075;DHT22;526;51.392;12.448;2022-08-01T15:24:30;28.00;82.80
1075;DHT22;526;51.392;12.448;2022-08-01T15:26:56;28.10;83.70
1075;DHT22;526;51.392;12.448;2022-08-01T15:29:22;28.10;83.10
1075;DHT22;526;51.392;12.448;2022-08-01T15:31:48;28.10;82.90
1075;DHT22;526;51.392;12.448;2022-08-01T15:34:13;28.10;82.50
1075;DHT22;526;51.392;12.448;2022-08-01T15:36:39;28.10;82.20
1075;DHT22;526;51.392;12.448;2022-08-01T15:39:05;28.10;82.10
1075;DHT22;526;51.392;12.448;2022-08-01T15:41:30;28.10;81.80
1075;DHT22;526;51.392;12.448;2022-08-01T15:43:56;28.00;81.00
1075;DHT22;526;51.392;12.448;2022-08-01T15:46:21;27.90;81.50
1075;DHT22;526;51.392;12.448;2022-08-01T15:48:47;27.70;81.70
1075;DHT22;526;51.392;12.448;2022-08-01T15:51:12;27.70;82.20
1075;DHT22;526;51.392;12.448;2022-08-01T15:53:38;27.60;83.20
1075;DHT22;526;51.392;12.448;2022-08-01T15:56:04;27.70;82.40
1075;DHT22;526;51.392;12.448;2022-08-01T15:58:30;27.70;82.20
1075;DHT22;526;51.392;12.448;2022-08-01T16:00:56;27.70;82.50
1075;DHT22;526;51.392;12.448;2022-08-01T16:03:21;27.80;83.00
1075;DHT22;526;51.392;12.448;2022-08-01T16:05:47;27.90;82.20
1075;DHT22;526;51.392;12.448;2022-08-01T16:08:15;28.00;82.70
1075;DHT22;526;51.392;12.448;2022-08-01T16:10:41;28.10;82.30
1075;DHT22;526;51.392;12.448;2022-08-01T16:13:07;28.20;81.30
1075;DHT22;526;51.392;12.448;2022-08-01T16:15:33;28.20;81.10
1075;DHT22;526;51.392;12.448;2022-08-01T16:17:58;28.20;80.60
1075;DHT22;526;51.392;12.448;2022-08-01T16:20:24;28.20;81.00
1075;DHT22;526;51.392;12.448;2022-08-01T16:22:50;28.20;82.10
1075;DHT22;526;51.392;12.448;2022-08-01T16:25:15;28.20;80.70
1075;DHT22;526;51.392;12.448;2022-08-01T16:27:42;28.20;81.10
1075;DHT22;526;51.392;12.448;2022-08-01T16:30:08;28.10;80.30
1075;DHT22;526;51.392;12.448;2022-08-01T16:32:33;28.00;80.90